sensor_id;sensor_type;location;lat;lon;timestamp;temperature;humidity
32097;DHT22;18610;49.916;8.284;2023-05-10T00:00:00;13.10;99.90
32097;DHT22;18610;49.916;8.284;2023-05-10T00:02:30;13.10;99.90
32097;DHT22;18610;49.916;8.284;2023-05-10T00:04:56;13.10;99.90
32097;DHT22;18610;49.916;8.284;2023-05-10T00:07:23;13.00;99.90
32097;DHT22;18610;49.916;8.284;2023-05-10T00:09:50;13.10;99.90
32097;DHT22;18610;49.916;8.284;2023-05-10T00:12:17;13.10;99.90
32097;DHT22;18610;49.916;8.284;2023-05-10T00:14:43;13.00;99.90
32097;DHT22;18610;49.916;8.284;2023-05-10T00:17:11;13.00;99.90
32097;DHT22;18610;49.916;8.284;2023-05-10T00:19:38;13.00;99.90
32097;DHT22;18610;49.916;8.284;2023-05-10T00:22:05;13.00;99.90
32097;DHT22;18610;49.916;8.284;2023-05-10T00:24:32;13.00;99.90
32097;DHT22;18610;49.916;8.284;2023-05-10T00:26:58;13.00;99.90
32097;DHT22;18610;49.916;8.284;2023-05-10T00:29:26;13.00;99.90
32097;DHT22;18610;49.916;8.284;2023-05-10T00:31:53;13.00;99.90
32097;DHT22;18610;49.916;8.284;2023-05-10T00:34:21;13.00;99.90
32097;DHT22;18610;49.916;8.284;2023-05-10T00:36:48;13.00;99.90
32097;DHT22;18610;49.916;8.284;2023-05-10T00:39:15;13.00;99.90
32097;DHT22;18610;49.916;8.284;2023-05-10T00:41:41;13.00;99.90
32097;DHT22;18610;49.916;8.284;2023-05-10T00:44:08;13.00;99.90
32097;DHT22;18610;49.916;8.284;2023-05-10T00:46:35;12.90;99.90
32097;DHT22;18610;49.916;8.284;2023-05-10T00:49:02;12.90;99.90
32097;DHT22;18610;49.916;8.284;2023-05-10T00:51:31;12.90;99.90
32097;DHT22;18610;49.916;8.284;2023-05-10T00:53:58;12.90;99.90
32097;DHT22;18610;49.916;8.284;2023-05-10T00:56:25;12.90;99.90
32097;DHT22;18610;49.916;8.284;2023-05-10T00:58:55;12.90;99.90
32097;DHT22;18610;49.916;8.284;2023-05-10T01:01:22;12.90;99.90
32097;DHT22;18610;49.916;8.284;2023-05-10T01:03:49;12.90;99.90
32097;DHT22;18610;49.916;8.284;2023-05-10T01:06:16;12.90;99.90
32097;DHT22;18610;49.916;8.284;2023-05-10T01:08:44;12.90;99.90
32097;DHT22;18610;49.916;8.284;2023-05-10T01:11:10;12.90;99.90
32097;DHT22;18610;49.916;8.284;2023-05-10T01:13:39;12.80;99.90
32097;DHT22;18610;49.916;8.284;2023-05-10T01:16:07;12.90;99.90
32097;DHT22;18610;49.916;8.284;2023-05-10T01:18:36;12.80;99.90
32097;DHT22;18610;49.916;8.284;2023-05-10T01:21:12;12.80;99.90
32097;DHT22;18610;49.916;8.284;2023-05-10T01:24:03;12.90;99.90
32097;DHT22;18610;49.916;8.284;2023-05-10T01:32:48;12.90;99.90
32097;DHT22;18610;49.916;8.284;2023-05-10T01:35:21;12.80;99.90
32097;DHT22;18610;49.916;8.284;2023-05-10T01:37:55;12.80;99.90
32097;DHT22;18610;49.916;8.284;2023-05-10T01:40:29;12.80;99.90
32097;DHT22;18610;49.916;8.284;2023-05-10T01:43:01;12.90;99.90
32097;DHT22;18610;49.916;8.284;2023-05-10T01:45:31;12.90;99.90
32097;DHT22;18610;49.916;8.284;2023-05-10T01:48:06;12.90;99.90
32097;DHT22;18610;49.916;8.284;2023-05-10T01:50:35;12.90;99.90
32097;DHT22;18610;49.916;8.284;2023-05-10T01:53:03;12.90;99.90
32097;DHT22;18610;49.916;8.284;2023-05-10T01:55:35;12.90;99.90
32097;DHT22;18610;49.916;8.284;2023-05-10T01:58:09;12.90;99.90
32097;DHT22;18610;49.916;8.284;2023-05-10T02:00:40;12.90;99.90
32097;DHT22;18610;49.916;8.284;2023-05-10T02:03:11;12.80;99.90
32097;DHT22;18610;49.916;8.284;2023-05-10T02:05:39;12.80;99.90
32097;DHT22;18610;49.916;8.284;2023-05-10T02:08:07;12.80;99.90
32097;DHT22;18610;49.916;8.284;2023-05-10T02:10:36;12.80;99.90
32097;DHT22;18610;49.916;8.284;2023-05-10T02:13:04;12.90;99.90
32097;DHT22;18610;49.916;8.284;2023-05-10T02:15:32;12.90;99.90
32097;DHT22;18610;49.916;8.284;2023-05-10T02:18:02;12.90;99.90
32097;DHT22;18610;49.916;8.284;2023-05-10T02:20:31;12.90;99.90
32097;DHT22;18610;49.916;8.284;2023-05-10T02:22:59;12.90;99.90
32097;DHT22;18610;49.916;8.284;2023-05-10T02:25:27;12.90;99.90
32097;DHT22;18610;49.916;8.284;2023-05-10T02:27:56;12.90;99.90
32097;DHT22;18610;49.916;8.284;2023-05-10T02:30:23;13.00;99.90
32097;DHT22;18610;49.916;8.284;2023-05-10T02:32:51;12.90;99.90
32097;DHT22;18610;49.916;8.284;2023-05-10T02:35:19;12.90;99.90
32097;DHT22;18610;49.916;8.284;2023-05-10T02:37:48;12.90;99.90
32097;DHT22;18610;49.916;8.284;2023-05-10T02:40:15;12.90;99.90
32097;DHT22;18610;49.916;8.284;2023-05-10T02:42:44;12.90;99.90
32097;DHT22;18610;49.916;8.284;2023-05-10T02:45:14;12.90;99.90
32097;DHT22;18610;49.916;8.284;2023-05-10T02:47:42;12.90;99.90
32097;DHT22;18610;49.916;8.284;2023-05-10T02:50:09;12.90;99.90
32097;DHT22;18610;49.916;8.284;2023-05-10T02:52:39;12.90;99.90
32097;DHT22;18610;49.916;8.284;2023-05-10T02:55:12;12.90;99.90
32097;DHT22;18610;49.916;8.284;2023-05-10T02:57:51;12.90;99.90
32097;DHT22;18610;49.916;8.284;2023-05-10T03:00:20;12.90;99.90
32097;DHT22;18610;49.916;8.284;2023-05-10T03:02:47;12.80;99.90
32097;DHT22;18610;49.916;8.284;2023-05-10T03:05:13;12.80;99.90
32097;DHT22;18610;49.916;8.284;2023-05-10T03:07:40;12.80;99.90
32097;DHT22;18610;49.916;8.284;2023-05-10T03:10:09;12.80;99.90
32097;DHT22;18610;49.916;8.284;2023-05-10T03:12:52;12.80;99.90
32097;DHT22;18610;49.916;8.284;2023-05-10T03:15:28;12.90;99.90
32097;DHT22;18610;49.916;8.284;2023-05-10T03:18:01;12.90;99.90
32097;DHT22;18610;49.916;8.284;2023-05-10T03:20:35;12.90;99.90
32097;DHT22;18610;49.916;8.284;2023-05-10T03:23:07;12.90;99.90
32097;DHT22;18610;49.916;8.284;2023-05-10T03:25:37;12.90;99.90
32097;DHT22;18610;49.916;8.284;2023-05-10T03:28:05;12.90;99.90
32097;DHT22;18610;49.916;8.284;2023-05-10T03:30:33;12.90;99.90
32097;DHT22;18610;49.916;8.284;2023-05-10T03:33:04;13.00;99.90
32097;DHT22;18610;49.916;8.284;2023-05-10T03:35:31;13.00;99.90
32097;DHT22;18610;49.916;8.284;2023-05-10T03:37:58;13.00;99.90
32097;DHT22;18610;49.916;8.284;2023-05-10T03:40:25;13.00;99.90
32097;DHT22;18610;49.916;8.284;2023-05-10T03:42:55;12.90;99.90
32097;DHT22;18610;49.916;8.284;2023-05-10T03:45:22;12.90;99.90
32097;DHT22;18610;49.916;8.284;2023-05-10T03:47:49;12.90;99.90
32097;DHT22;18610;49.916;8.284;2023-05-10T03:50:16;12.90;99.90
32097;DHT22;18610;49.916;8.284;2023-05-10T03:52:43;13.00;99.90
32097;DHT22;18610;49.916;8.284;2023-05-10T03:55:10;12.90;99.90
32097;DHT22;18610;49.916;8.284;2023-05-10T03:57:37;12.90;99.90
32097;DHT22;18610;49.916;8.284;2023-05-10T04:00:06;12.90;99.90
32097;DHT22;18610;49.916;8.284;2023-05-10T04:02:33;12.90;99.90
32097;DHT22;18610;49.916;8.284;2023-05-10T04:05:00;12.90;99.90
32097;DHT22;18610;49.916;8.284;2023-05-10T04:07:27;12.90;99.90
32097;DHT22;18610;49.916;8.284;2023-05-10T04:09:53;12.90;99.90
32097;DHT22;18610;49.916;8.284;2023-05-10T04:12:20;12.90;99.90
32097;DHT22;18610;49.916;8.284;2023-05-10T04:14:47;12.90;99.90
32097;DHT22;18610;49.916;8.284;2023-05-10T04:17:15;12.90;99.90
32097;DHT22;18610;49.916;8.284;2023-05-10T04:19:42;12.90;99.90
32097;DHT22;18610;49.916;8.284;2023-05-10T04:22:08;12.90;99.90
32097;DHT22;18610;49.916;8.284;2023-05-10T04:24:35;12.90;99.90
32097;DHT22;18610;49.916;8.284;2023-05-10T04:27:02;12.90;99.90
32097;DHT22;18610;49.916;8.284;2023-05-10T04:29:29;12.90;99.90
32097;DHT22;18610;49.916;8.284;2023-05-10T04:31:56;12.90;99.90
32097;DHT22;18610;49.916;8.284;2023-05-10T04:34:24;12.90;99.90
32097;DHT22;18610;49.916;8.284;2023-05-10T04:36:51;12.90;99.90
32097;DHT22;18610;49.916;8.284;2023-05-10T04:39:18;12.90;99.90
32097;DHT22;18610;49.916;8.284;2023-05-10T04:41:44;12.90;99.90
32097;DHT22;18610;49.916;8.284;2023-05-10T04:44:11;12.90;99.90
32097;DHT22;18610;49.916;8.284;2023-05-10T04:46:38;12.90;99.90
32097;DHT22;18610;49.916;8.284;2023-05-10T04:49:05;12.90;99.90
32097;DHT22;18610;49.916;8.284;2023-05-10T04:51:33;12.90;99.90
32097;DHT22;18610;49.916;8.284;2023-05-10T04:54:00;12.90;99.90
32097;DHT22;18610;49.916;8.284;2023-05-10T04:56:26;12.80;99.90
32097;DHT22;18610;49.916;8.284;2023-05-10T04:58:53;12.80;99.90
32097;DHT22;18610;49.916;8.284;2023-05-10T05:01:20;12.80;99.90
32097;DHT22;18610;49.916;8.284;2023-05-10T05:03:48;12.80;99.90
32097;DHT22;18610;49.916;8.284;2023-05-10T05:06:15;12.90;99.90
32097;DHT22;18610;49.916;8.284;2023-05-10T05:08:43;12.90;99.90
32097;DHT22;18610;49.916;8.284;2023-05-10T05:11:09;12.90;99.90
32097;DHT22;18610;49.916;8.284;2023-05-10T05:13:36;12.90;99.90
32097;DHT22;18610;49.916;8.284;2023-05-10T05:16:03;12.90;99.90
32097;DHT22;18610;49.916;8.284;2023-05-10T05:18:30;12.90;99.90
32097;DHT22;18610;49.916;8.284;2023-05-10T05:20:57;12.90;99.90
32097;DHT22;18610;49.916;8.284;2023-05-10T05:23:24;12.90;99.90
32097;DHT22;18610;49.916;8.284;2023-05-10T05:25:53;12.90;99.90
32097;DHT22;18610;49.916;8.284;2023-05-10T05:28:20;12.90;99.90
32097;DHT22;18610;49.916;8.284;2023-05-10T05:30:46;12.90;99.90
32097;DHT22;18610;49.916;8.284;2023-05-10T05:33:13;12.90;99.90
32097;DHT22;18610;49.916;8.284;2023-05-10T05:35:40;12.90;99.90
32097;DHT22;18610;49.916;8.284;2023-05-10T05:38:08;12.90;99.90
32097;DHT22;18610;49.916;8.284;2023-05-10T05:40:35;12.90;99.90
32097;DHT22;18610;49.916;8.284;2023-05-10T05:43:03;12.80;99.90
32097;DHT22;18610;49.916;8.284;2023-05-10T05:45:29;12.90;99.90
32097;DHT22;18610;49.916;8.284;2023-05-10T05:47:56;12.90;99.90
32097;DHT22;18610;49.916;8.284;2023-05-10T05:50:23;12.80;99.90
32097;DHT22;18610;49.916;8.284;2023-05-10T05:52:49;12.90;99.90
32097;DHT22;18610;49.916;8.284;2023-05-10T05:55:16;12.90;99.90
32097;DHT22;18610;49.916;8.284;2023-05-10T05:57:43;12.90;99.90
32097;DHT22;18610;49.916;8.284;2023-05-10T06:00:13;12.90;99.90
32097;DHT22;18610;49.916;8.284;2023-05-10T06:02:40;12.90;99.90
32097;DHT22;18610;49.916;8.284;2023-05-10T06:05:08;13.00;99.90
32097;DHT22;18610;49.916;8.284;2023-05-10T06:07:35;13.00;99.90
32097;DHT22;18610;49.916;8.284;2023-05-10T06:10:02;13.10;99.90
32097;DHT22;18610;49.916;8.284;2023-05-10T06:12:29;13.20;99.90
32097;DHT22;18610;49.916;8.284;2023-05-10T06:14:55;13.30;99.90
32097;DHT22;18610;49.916;8.284;2023-05-10T06:17:24;13.40;99.90
32097;DHT22;18610;49.916;8.284;2023-05-10T06:19:51;13.50;99.90
32097;DHT22;18610;49.916;8.284;2023-05-10T06:22:17;13.50;99.90
32097;DHT22;18610;49.916;8.284;2023-05-10T06:24:44;13.60;99.90
32097;DHT22;18610;49.916;8.284;2023-05-10T06:27:10;13.70;99.90
32097;DHT22;18610;49.916;8.284;2023-05-10T06:29:37;13.70;99.90
32097;DHT22;18610;49.916;8.284;2023-05-10T06:32:04;13.80;99.90
32097;DHT22;18610;49.916;8.284;2023-05-10T06:34:32;13.80;99.90
32097;DHT22;18610;49.916;8.284;2023-05-10T06:36:59;13.90;99.90
32097;DHT22;18610;49.916;8.284;2023-05-10T06:39:25;14.00;99.90
32097;DHT22;18610;49.916;8.284;2023-05-10T06:41:52;14.00;99.90
32097;DHT22;18610;49.916;8.284;2023-05-10T06:44:19;14.10;99.90
32097;DHT22;18610;49.916;8.284;2023-05-10T06:46:46;14.20;99.90
32097;DHT22;18610;49.916;8.284;2023-05-10T06:49:13;14.30;99.90
32097;DHT22;18610;49.916;8.284;2023-05-10T06:51:42;14.40;99.90
32097;DHT22;18610;49.916;8.284;2023-05-10T06:54:09;14.40;99.90
32097;DHT22;18610;49.916;8.284;2023-05-10T06:56:35;14.50;99.90
32097;DHT22;18610;49.916;8.284;2023-05-10T06:59:03;14.60;99.90
32097;DHT22;18610;49.916;8.284;2023-05-10T07:01:29;14.70;99.90
32097;DHT22;18610;49.916;8.284;2023-05-10T07:03:56;14.80;99.90
32097;DHT22;18610;49.916;8.284;2023-05-10T07:06:23;14.90;99.90
32097;DHT22;18610;49.916;8.284;2023-05-10T07:08:51;15.00;99.90
32097;DHT22;18610;49.916;8.284;2023-05-10T07:11:18;15.00;99.90
32097;DHT22;18610;49.916;8.284;2023-05-10T07:13:45;15.10;99.90
32097;DHT22;18610;49.916;8.284;2023-05-10T07:16:12;15.10;99.90
32097;DHT22;18610;49.916;8.284;2023-05-10T07:18:39;15.10;99.90
32097;DHT22;18610;49.916;8.284;2023-05-10T07:21:05;15.10;99.90
32097;DHT22;18610;49.916;8.284;2023-05-10T07:23:32;15.10;99.90
32097;DHT22;18610;49.916;8.284;2023-05-10T07:26:01;15.20;99.90
32097;DHT22;18610;49.916;8.284;2023-05-10T07:28:28;15.20;99.90
32097;DHT22;18610;49.916;8.284;2023-05-10T07:30:54;15.20;99.90
32097;DHT22;18610;49.916;8.284;2023-05-10T07:33:22;15.20;99.90
32097;DHT22;18610;49.916;8.284;2023-05-10T07:35:49;15.20;99.90
32097;DHT22;18610;49.916;8.284;2023-05-10T07:38:17;15.20;99.90
32097;DHT22;18610;49.916;8.284;2023-05-10T07:40:43;15.20;99.90
32097;DHT22;18610;49.916;8.284;2023-05-10T07:43:11;15.30;99.90
32097;DHT22;18610;49.916;8.284;2023-05-10T07:45:38;15.30;99.90
32097;DHT22;18610;49.916;8.284;2023-05-10T07:48:05;15.30;99.90
32097;DHT22;18610;49.916;8.284;2023-05-10T07:50:32;15.40;99.90
32097;DHT22;18610;49.916;8.284;2023-05-10T07:52:59;15.40;99.90
32097;DHT22;18610;49.916;8.284;2023-05-10T07:55:26;15.40;99.90
32097;DHT22;18610;49.916;8.284;2023-05-10T07:57:53;15.40;99.90
32097;DHT22;18610;49.916;8.284;2023-05-10T08:00:21;15.50;99.90
32097;DHT22;18610;49.916;8.284;2023-05-10T08:02:48;15.50;99.90
32097;DHT22;18610;49.916;8.284;2023-05-10T08:05:15;15.60;99.90
32097;DHT22;18610;49.916;8.284;2023-05-10T08:07:41;15.70;99.90
32097;DHT22;18610;49.916;8.284;2023-05-10T08:10:09;15.80;99.90
32097;DHT22;18610;49.916;8.284;2023-05-10T08:12:37;15.90;99.90
32097;DHT22;18610;49.916;8.284;2023-05-10T08:15:05;15.90;99.90
32097;DHT22;18610;49.916;8.284;2023-05-10T08:17:33;16.00;99.90
32097;DHT22;18610;49.916;8.284;2023-05-10T08:20:00;16.00;99.90
32097;DHT22;18610;49.916;8.284;2023-05-10T08:22:27;16.00;99.90
32097;DHT22;18610;49.916;8.284;2023-05-10T08:24:54;16.10;99.90
32097;DHT22;18610;49.916;8.284;2023-05-10T08:27:21;16.10;99.90
32097;DHT22;18610;49.916;8.284;2023-05-10T08:29:47;16.00;99.90
32097;DHT22;18610;49.916;8.284;2023-05-10T08:32:14;16.10;99.90
32097;DHT22;18610;49.916;8.284;2023-05-10T08:34:42;16.20;99.90
32097;DHT22;18610;49.916;8.284;2023-05-10T08:37:09;16.30;99.90
32097;DHT22;18610;49.916;8.284;2023-05-10T08:39:38;16.40;99.90
32097;DHT22;18610;49.916;8.284;2023-05-10T08:42:05;16.50;99.90
32097;DHT22;18610;49.916;8.284;2023-05-10T08:44:35;16.60;99.90
32097;DHT22;18610;49.916;8.284;2023-05-10T08:47:04;16.70;99.90
32097;DHT22;18610;49.916;8.284;2023-05-10T08:49:31;16.80;99.90
32097;DHT22;18610;49.916;8.284;2023-05-10T08:52:02;17.00;99.90
32097;DHT22;18610;49.916;8.284;2023-05-10T08:54:31;16.90;99.90
32097;DHT22;18610;49.916;8.284;2023-05-10T08:56:58;17.10;99.90
32097;DHT22;18610;49.916;8.284;2023-05-10T08:59:28;17.10;99.90
32097;DHT22;18610;49.916;8.284;2023-05-10T09:01:57;17.10;99.90
32097;DHT22;18610;49.916;8.284;2023-05-10T09:04:24;16.90;99.90
32097;DHT22;18610;49.916;8.284;2023-05-10T09:06:51;16.80;99.90
32097;DHT22;18610;49.916;8.284;2023-05-10T09:09:20;16.70;99.90
32097;DHT22;18610;49.916;8.284;2023-05-10T09:11:48;16.60;99.90
32097;DHT22;18610;49.916;8.284;2023-05-10T09:14:15;16.60;99.90
32097;DHT22;18610;49.916;8.284;2023-05-10T09:16:42;16.60;99.90
32097;DHT22;18610;49.916;8.284;2023-05-10T09:19:09;16.50;99.90
32097;DHT22;18610;49.916;8.284;2023-05-10T09:21:36;16.60;99.90
32097;DHT22;18610;49.916;8.284;2023-05-10T09:24:05;16.70;99.90
32097;DHT22;18610;49.916;8.284;2023-05-10T09:26:34;16.70;99.90
32097;DHT22;18610;49.916;8.284;2023-05-10T09:29:02;16.80;99.90
32097;DHT22;18610;49.916;8.284;2023-05-10T09:31:44;17.00;99.90
32097;DHT22;18610;49.916;8.284;2023-05-10T09:34:15;17.20;99.90
32097;DHT22;18610;49.916;8.284;2023-05-10T09:36:51;17.30;99.90
32097;DHT22;18610;49.916;8.284;2023-05-10T09:39:18;17.30;99.90
32097;DHT22;18610;49.916;8.284;2023-05-10T09:41:47;17.50;99.90
32097;DHT22;18610;49.916;8.284;2023-05-10T09:44:16;17.60;99.90
32097;DHT22;18610;49.916;8.284;2023-05-10T09:46:49;17.90;99.90
32097;DHT22;18610;49.916;8.284;2023-05-10T09:49:15;18.30;99.90
32097;DHT22;18610;49.916;8.284;2023-05-10T09:51:42;18.60;99.90
32097;DHT22;18610;49.916;8.284;2023-05-10T09:54:10;18.90;99.90
32097;DHT22;18610;49.916;8.284;2023-05-10T09:56:37;19.20;99.90
32097;DHT22;18610;49.916;8.284;2023-05-10T09:59:09;19.40;99.90
32097;DHT22;18610;49.916;8.284;2023-05-10T10:01:37;19.30;99.90
32097;DHT22;18610;49.916;8.284;2023-05-10T10:04:05;19.20;99.90
32097;DHT22;18610;49.916;8.284;2023-05-10T10:06:36;19.10;99.90
32097;DHT22;18610;49.916;8.284;2023-05-10T10:09:04;18.90;99.90
32097;DHT22;18610;49.916;8.284;2023-05-10T10:11:31;18.50;99.90
32097;DHT22;18610;49.916;8.284;2023-05-10T10:13:58;18.10;99.90
32097;DHT22;18610;49.916;8.284;2023-05-10T10:16:27;18.00;99.90
32097;DHT22;18610;49.916;8.284;2023-05-10T10:18:55;17.80;99.90
32097;DHT22;18610;49.916;8.284;2023-05-10T10:21:22;17.70;99.90
32097;DHT22;18610;49.916;8.284;2023-05-10T10:23:52;17.60;99.90
32097;DHT22;18610;49.916;8.284;2023-05-10T10:26:20;17.50;99.90
32097;DHT22;18610;49.916;8.284;2023-05-10T10:28:51;17.30;99.90
32097;DHT22;18610;49.916;8.284;2023-05-10T10:31:31;17.10;99.90
32097;DHT22;18610;49.916;8.284;2023-05-10T10:34:05;16.90;99.90
32097;DHT22;18610;49.916;8.284;2023-05-10T10:36:32;16.80;99.90
32097;DHT22;18610;49.916;8.284;2023-05-10T10:39:08;16.70;99.90
32097;DHT22;18610;49.916;8.284;2023-05-10T10:41:37;16.60;99.90
32097;DHT22;18610;49.916;8.284;2023-05-10T10:47:28;16.50;99.90
32097;DHT22;18610;49.916;8.284;2023-05-10T10:50:06;16.50;99.90
32097;DHT22;18610;49.916;8.284;2023-05-10T10:52:34;16.40;99.90
32097;DHT22;18610;49.916;8.284;2023-05-10T10:55:03;16.40;99.90
32097;DHT22;18610;49.916;8.284;2023-05-10T10:57:43;16.40;99.90
32097;DHT22;18610;49.916;8.284;2023-05-10T11:00:24;16.50;99.90
32097;DHT22;18610;49.916;8.284;2023-05-10T11:02:53;16.60;99.90
32097;DHT22;18610;49.916;8.284;2023-05-10T11:05:41;16.70;99.90
32097;DHT22;18610;49.916;8.284;2023-05-10T11:08:16;16.80;99.90
32097;DHT22;18610;49.916;8.284;2023-05-10T11:13:34;17.30;99.90
32097;DHT22;18610;49.916;8.284;2023-05-10T11:16:13;17.60;99.90
32097;DHT22;18610;49.916;8.284;2023-05-10T11:18:52;17.70;99.90
32097;DHT22;18610;49.916;8.284;2023-05-10T11:21:19;17.80;99.90
32097;DHT22;18610;49.916;8.284;2023-05-10T11:23:50;18.00;99.90
32097;DHT22;18610;49.916;8.284;2023-05-10T11:26:19;18.40;99.90
32097;DHT22;18610;49.916;8.284;2023-05-10T11:28:49;18.70;99.90
32097;DHT22;18610;49.916;8.284;2023-05-10T11:31:16;19.00;99.90
32097;DHT22;18610;49.916;8.284;2023-05-10T11:33:45;19.30;99.90
32097;DHT22;18610;49.916;8.284;2023-05-10T11:36:12;19.50;99.90
32097;DHT22;18610;49.916;8.284;2023-05-10T11:38:39;19.80;99.90
32097;DHT22;18610;49.916;8.284;2023-05-10T11:41:08;19.90;99.10
32097;DHT22;18610;49.916;8.284;2023-05-10T11:43:35;20.10;97.80
32097;DHT22;18610;49.916;8.284;2023-05-10T11:46:04;20.40;96.70
32097;DHT22;18610;49.916;8.284;2023-05-10T11:48:31;20.30;95.70
32097;DHT22;18610;49.916;8.284;2023-05-10T11:51:00;20.10;96.70
32097;DHT22;18610;49.916;8.284;2023-05-10T11:53:27;20.40;97.00
32097;DHT22;18610;49.916;8.284;2023-05-10T11:55:54;20.30;95.50
32097;DHT22;18610;49.916;8.284;2023-05-10T11:58:23;20.40;95.70
32097;DHT22;18610;49.916;8.284;2023-05-10T12:00:50;20.60;95.90
32097;DHT22;18610;49.916;8.284;2023-05-10T12:03:17;20.80;96.40
32097;DHT22;18610;49.916;8.284;2023-05-10T12:05:44;20.70;96.10
32097;DHT22;18610;49.916;8.284;2023-05-10T12:08:13;20.60;97.20
32097;DHT22;18610;49.916;8.284;2023-05-10T12:10:41;20.70;96.60
32097;DHT22;18610;49.916;8.284;2023-05-10T12:13:11;20.90;95.70
32097;DHT22;18610;49.916;8.284;2023-05-10T12:15:39;21.10;95.00
32097;DHT22;18610;49.916;8.284;2023-05-10T12:18:07;21.10;94.20
32097;DHT22;18610;49.916;8.284;2023-05-10T12:20:37;21.00;94.50
32097;DHT22;18610;49.916;8.284;2023-05-10T12:23:04;20.70;95.50
32097;DHT22;18610;49.916;8.284;2023-05-10T12:25:34;20.50;95.00
32097;DHT22;18610;49.916;8.284;2023-05-10T12:28:03;20.10;95.40
32097;DHT22;18610;49.916;8.284;2023-05-10T12:30:33;19.80;96.30
32097;DHT22;18610;49.916;8.284;2023-05-10T12:33:01;19.70;95.70
32097;DHT22;18610;49.916;8.284;2023-05-10T12:35:31;19.60;96.50
32097;DHT22;18610;49.916;8.284;2023-05-10T12:37:59;19.50;97.00
32097;DHT22;18610;49.916;8.284;2023-05-10T12:40:26;19.50;96.60
32097;DHT22;18610;49.916;8.284;2023-05-10T12:42:54;19.50;96.60
32097;DHT22;18610;49.916;8.284;2023-05-10T12:45:20;19.50;96.70
32097;DHT22;18610;49.916;8.284;2023-05-10T12:47:48;19.60;96.60
32097;DHT22;18610;49.916;8.284;2023-05-10T12:50:15;19.80;96.90
32097;DHT22;18610;49.916;8.284;2023-05-10T12:52:42;20.10;96.70
32097;DHT22;18610;49.916;8.284;2023-05-10T12:55:09;20.40;95.80
32097;DHT22;18610;49.916;8.284;2023-05-10T12:57:35;20.70;96.00
32097;DHT22;18610;49.916;8.284;2023-05-10T13:00:05;21.00;95.80
32097;DHT22;18610;49.916;8.284;2023-05-10T13:02:32;21.20;95.00
32097;DHT22;18610;49.916;8.284;2023-05-10T13:04:59;21.20;94.30
32097;DHT22;18610;49.916;8.284;2023-05-10T13:07:26;21.20;94.20
32097;DHT22;18610;49.916;8.284;2023-05-10T13:09:53;21.20;94.90
32097;DHT22;18610;49.916;8.284;2023-05-10T13:12:20;21.20;94.90
32097;DHT22;18610;49.916;8.284;2023-05-10T13:14:46;21.20;94.30
32097;DHT22;18610;49.916;8.284;2023-05-10T13:17:14;21.20;94.80
32097;DHT22;18610;49.916;8.284;2023-05-10T13:19:41;21.30;94.70
32097;DHT22;18610;49.916;8.284;2023-05-10T13:22:08;21.50;94.60
32097;DHT22;18610;49.916;8.284;2023-05-10T13:24:35;21.80;93.70
32097;DHT22;18610;49.916;8.284;2023-05-10T13:27:02;21.80;92.10
32097;DHT22;18610;49.916;8.284;2023-05-10T13:29:29;21.60;91.90
32097;DHT22;18610;49.916;8.284;2023-05-10T13:31:56;21.50;93.00
32097;DHT22;18610;49.916;8.284;2023-05-10T13:34:24;21.50;93.10
32097;DHT22;18610;49.916;8.284;2023-05-10T13:36:50;21.40;92.90
32097;DHT22;18610;49.916;8.284;2023-05-10T13:39:18;21.40;93.50
32097;DHT22;18610;49.916;8.284;2023-05-10T13:41:45;21.30;94.50
32097;DHT22;18610;49.916;8.284;2023-05-10T13:44:13;21.10;94.60
32097;DHT22;18610;49.916;8.284;2023-05-10T13:46:40;21.10;94.30
32097;DHT22;18610;49.916;8.284;2023-05-10T13:49:08;21.20;94.40
32097;DHT22;18610;49.916;8.284;2023-05-10T13:51:36;21.20;93.20
32097;DHT22;18610;49.916;8.284;2023-05-10T13:54:03;21.00;93.20
32097;DHT22;18610;49.916;8.284;2023-05-10T13:56:30;20.90;93.90
32097;DHT22;18610;49.916;8.284;2023-05-10T13:58:57;21.00;93.90
32097;DHT22;18610;49.916;8.284;2023-05-10T14:01:24;21.10;93.60
32097;DHT22;18610;49.916;8.284;2023-05-10T14:03:50;21.00;93.40
32097;DHT22;18610;49.916;8.284;2023-05-10T14:06:17;20.70;93.10
32097;DHT22;18610;49.916;8.284;2023-05-10T14:08:45;20.50;93.90
32097;DHT22;18610;49.916;8.284;2023-05-10T14:11:12;20.30;93.70
32097;DHT22;18610;49.916;8.284;2023-05-10T14:13:39;20.30;93.90
32097;DHT22;18610;49.916;8.284;2023-05-10T14:16:06;20.30;94.30
32097;DHT22;18610;49.916;8.284;2023-05-10T14:18:33;20.20;94.10
32097;DHT22;18610;49.916;8.284;2023-05-10T14:20:59;20.10;94.40
32097;DHT22;18610;49.916;8.284;2023-05-10T14:23:26;20.20;95.00
32097;DHT22;18610;49.916;8.284;2023-05-10T14:25:55;20.10;94.30
32097;DHT22;18610;49.916;8.284;2023-05-10T14:28:22;20.10;94.70
32097;DHT22;18610;49.916;8.284;2023-05-10T14:30:50;20.00;94.60
32097;DHT22;18610;49.916;8.284;2023-05-10T14:33:17;20.00;94.30
32097;DHT22;18610;49.916;8.284;2023-05-10T14:35:44;19.90;94.60
32097;DHT22;18610;49.916;8.284;2023-05-10T14:38:12;20.00;93.70
32097;DHT22;18610;49.916;8.284;2023-05-10T14:40:39;20.00;92.80
32097;DHT22;18610;49.916;8.284;2023-05-10T14:43:07;19.90;91.60
32097;DHT22;18610;49.916;8.284;2023-05-10T14:45:34;19.60;92.50
32097;DHT22;18610;49.916;8.284;2023-05-10T14:48:00;19.50;92.70
32097;DHT22;18610;49.916;8.284;2023-05-10T14:50:30;19.40;92.60
32097;DHT22;18610;49.916;8.284;2023-05-10T14:52:57;19.40;93.20
32097;DHT22;18610;49.916;8.284;2023-05-10T14:55:24;19.40;93.20
32097;DHT22;18610;49.916;8.284;2023-05-10T14:57:50;19.40;93.80
32097;DHT22;18610;49.916;8.284;2023-05-10T15:00:19;19.40;93.70
32097;DHT22;18610;49.916;8.284;2023-05-10T15:02:47;19.30;93.00
32097;DHT22;18610;49.916;8.284;2023-05-10T15:05:14;19.20;93.10
32097;DHT22;18610;49.916;8.284;2023-05-10T15:07:40;19.10;93.30
32097;DHT22;18610;49.916;8.284;2023-05-10T15:10:09;19.10;93.20
32097;DHT22;18610;49.916;8.284;2023-05-10T15:12:36;19.10;94.50
32097;DHT22;18610;49.916;8.284;2023-05-10T15:15:04;19.20;93.60
32097;DHT22;18610;49.916;8.284;2023-05-10T15:17:32;19.30;93.50
32097;DHT22;18610;49.916;8.284;2023-05-10T15:19:59;19.40;93.70
32097;DHT22;18610;49.916;8.284;2023-05-10T15:22:27;19.50;93.50
32097;DHT22;18610;49.916;8.284;2023-05-10T15:24:54;19.80;93.00
32097;DHT22;18610;49.916;8.284;2023-05-10T15:27:21;19.80;92.90
32097;DHT22;18610;49.916;8.284;2023-05-10T15:29:47;19.80;92.80
32097;DHT22;18610;49.916;8.284;2023-05-10T15:32:14;19.90;93.00
32097;DHT22;18610;49.916;8.284;2023-05-10T15:34:42;19.80;92.30
32097;DHT22;18610;49.916;8.284;2023-05-10T15:37:09;19.70;92.10
32097;DHT22;18610;49.916;8.284;2023-05-10T15:39:36;19.60;92.90
32097;DHT22;18610;49.916;8.284;2023-05-10T15:42:03;19.60;92.50
32097;DHT22;18610;49.916;8.284;2023-05-10T15:44:29;19.70;92.60
32097;DHT22;18610;49.916;8.284;2023-05-10T15:46:56;19.70;92.40